Time;durP1;ratioP1;P1;durP2;ratioP2;P2;SDS_P1;SDS_P2;PMS_P1;PMS_P2;Temp;Humidity;BMP_temperature;BMP_pressure;BME280_temperature;BME280_humidity;BME280_pressure;Samples;Min_cycle;Max_cycle;Signal;HPM_P1;HPM_P2
2022/09/23 00:00:45;;;;;;;10.63;6.43;;;;;;;9.18;100.00;101605.06;5225301;28;20029;-65
2022/09/23 00:03:17;;;;;;;11.48;6.20;;;;;;;9.15;100.00;101604.41;5227360;28;20047;-65
2022/09/23 00:06:04;;;;;;;9.27;6.32;;;;;;;9.23;100.00;101607.50;5228653;28;20465;-66
2022/09/23 00:08:36;;;;;;;10.00;6.20;;;;;;;9.12;100.00;101605.44;5217195;28;20040;-66
2022/09/23 00:11:11;;;;;;;9.85;6.60;;;;;;;9.30;100.00;101602.63;5221526;28;20065;-66
2022/09/23 00:13:44;;;;;;;8.43;6.03;;;;;;;9.25;100.00;101604.75;5219617;28;20486;-65
2022/09/23 00:16:29;;;;;;;12.15;7.10;;;;;;;9.12;100.00;101608.09;5223503;28;20033;-65
2022/09/23 00:19:03;;;;;;;;;;;;;;;9.20;100.00;101603.22;5232254;28;20470;-65
2022/09/23 00:21:34;;;;;;;7.78;6.05;;;;;;;9.08;100.00;101597.72;5218501;28;19996;-65
2022/09/23 00:24:06;;;;;;;10.05;6.95;;;;;;;9.09;100.00;101604.75;5226869;28;20215;-65
2022/09/23 00:26:38;;;;;;;9.63;6.72;;;;;;;9.06;100.00;101589.81;5234328;28;20661;-65
2022/09/23 00:29:09;;;;;;;10.50;7.78;;;;;;;9.03;100.00;101598.88;5231263;28;20043;-65
2022/09/23 00:31:41;;;;;;;10.88;7.78;;;;;;;9.02;100.00;101594.47;5232220;28;20061;-65
2022/09/23 00:34:12;;;;;;;11.18;7.78;;;;;;;8.98;100.00;101590.28;5231187;28;20645;-65
2022/09/23 00:36:43;;;;;;;12.85;8.80;;;;;;;9.04;100.00;101586.41;5225322;28;20079;-65
2022/09/23 00:39:15;;;;;;;12.82;8.20;;;;;;;8.93;100.00;101584.34;5215401;28;20113;-65
2022/09/23 00:41:46;;;;;;;14.02;9.13;;;;;;;8.88;100.00;101583.78;5220170;28;20107;-65
2022/09/23 00:44:39;;;;;;;12.13;9.13;;;;;;;8.88;100.00;101577.56;5226196;28;20041;-65
2022/09/23 00:47:41;;;;;;;13.45;9.55;;;;;;;8.84;100.00;101574.25;5226024;28;20079;-65
2022/09/23 00:50:29;;;;;;;13.73;9.95;;;;;;;8.77;100.00;101584.38;5222335;28;20029;-65
2022/09/23 00:53:05;;;;;;;14.30;9.98;;;;;;;8.76;100.00;101581.81;5215384;28;20754;-65
2022/09/23 00:55:47;;;;;;;12.85;9.80;;;;;;;8.70;100.00;101580.34;5221804;28;20251;-66
2022/09/23 00:58:25;;;;;;;17.20;10.70;;;;;;;8.73;100.00;101584.66;5224153;28;20500;-65
2022/09/23 01:01:01;;;;;;;14.15;11.63;;;;;;;8.76;100.00;101582.69;5219931;28;20041;-66
2022/09/23 01:03:32;;;;;;;13.85;10.32;;;;;;;8.68;100.00;101574.25;5222644;28;20755;-65
2022/09/23 01:06:04;;;;;;;16.92;11.35;;;;;;;8.77;100.00;101572.88;5214915;28;20123;-65
2022/09/23 01:08:36;;;;;;;14.52;11.55;;;;;;;8.71;100.00;101573.25;5211812;28;20118;-65
2022/09/23 01:11:34;;;;;;;13.35;10.77;;;;;;;8.76;100.00;101569.38;5224827;28;20026;-65
2022/09/23 01:14:15;;;;;;;14.18;10.93;;;;;;;8.68;100.00;101573.41;5225164;28;20107;-65
2022/09/23 01:17:14;;;;;;;14.80;10.90;;;;;;;8.61;100.00;101571.09;5219362;28;20080;-66
2022/09/23 01:20:07;;;;;;;16.77;11.13;;;;;;;8.59;100.00;101569.44;5227691;28;20281;-65
2022/09/23 01:23:10;;;;;;;14.82;10.85;;;;;;;8.55;100.00;101570.56;5231898;28;20061;-65
2022/09/23 01:26:05;;;;;;;15.18;11.43;;;;;;;8.51;100.00;101566.38;5226279;28;21272;-65
2022/09/23 01:29:23;;;;;;;15.48;11.18;;;;;;;8.51;100.00;101566.38;5231326;28;20553;-65
2022/09/23 01:32:02;;;;;;;14.05;11.80;;;;;;;8.46;100.00;101565.78;5232000;28;20061;-67
2022/09/23 01:35:00;;;;;;;16.35;12.43;;;;;;;8.53;100.00;101564.50;5235692;28;21149;-66
2022/09/23 01:37:48;;;;;;;14.07;11.60;;;;;;;8.56;100.00;101561.66;5225022;28;20068;-65
2022/09/23 01:40:29;;;;;;;14.82;11.60;;;;;;;8.46;100.00;101557.78;5221594;28;20482;-65
2022/09/23 01:43:12;;;;;;;14.15;10.75;;;;;;;8.46;100.00;101557.78;5218244;28;20601;-65
2022/09/23 01:45:47;;;;;;;15.52;11.73;;;;;;;8.43;100.00;101556.16;5227810;28;20029;-65
2022/09/23 01:48:34;;;;;;;16.85;12.45;;;;;;;8.44;100.00;101561.41;5227302;28;20049;-65
2022/09/23 01:51:21;;;;;;;15.20;12.40;;;;;;;8.46;100.00;101563.09;5213355;28;20038;-65
2022/09/23 01:54:23;;;;;;;14.48;12.38;;;;;;;8.42;100.00;101560.63;5216937;28;20040;-66
2022/09/23 01:57:04;;;;;;;13.38;11.32;;;;;;;8.43;100.00;101554.34;5216424;28;20466;-65
2022/09/23 01:59:45;;;;;;;14.82;11.85;;;;;;;8.39;100.00;101558.09;5223771;28;20036;-65
2022/09/23 02:02:36;;;;;;;15.68;11.85;;;;;;;8.40;100.00;101562.50;5216843;28;20379;-66
2022/09/23 02:05:17;;;;;;;13.82;11.88;;;;;;;8.36;100.00;101558.28;5219966;28;20471;-65
2022/09/23 02:08:00;;;;;;;15.98;12.57;;;;;;;8.31;100.00;101547.06;5215077;28;20092;-65
2022/09/23 02:10:46;;;;;;;15.33;12.30;;;;;;;8.44;100.00;101548.13;5213564;28;20106;-65
2022/09/23 02:13:28;;;;;;;16.95;13.30;;;;;;;8.35;100.00;101545.94;5225404;28;20759;-65
2022/09/23 02:16:07;;;;;;;16.83;12.27;;;;;;;8.42;100.00;101547.34;5219116;28;20087;-65
2022/09/23 02:18:50;;;;;;;14.93;12.95;;;;;;;8.35;100.00;101545.94;5219874;28;20037;-65
2022/09/23 02:21:26;;;;;;;18.20;13.02;;;;;;;8.35;100.00;101537.94;5211757;28;20474;-65
2022/09/23 02:24:07;;;;;;;16.13;12.25;;;;;;;8.34;100.00;101532.72;5222062;28;20029;-65
2022/09/23 02:27:53;;;;;;;15.93;12.65;;;;;;;8.39;100.00;101535.97;5225818;28;20553;-65
2022/09/23 02:30:30;;;;;;;16.15;12.85;;;;;;;8.32;100.00;101530.16;5197531;28;20038;-65
2022/09/23 02:33:10;;;;;;;17.25;12.77;;;;;;;8.32;100.00;101526.63;5157961;28;20038;-66
2022/09/23 02:35:50;;;;;;;16.05;13.35;;;;;;;8.32;100.00;101529.28;5205370;28;20049;-65
2022/09/23 02:38:42;;;;;;;17.00;12.85;;;;;;;8.30;100.00;101521.38;5233232;28;20029;-66
2022/09/23 02:41:25;;;;;;;16.25;13.57;;;;;;;8.29;100.00;101513.53;5233006;28;20036;-65
2022/09/23 02:44:09;;;;;;;15.82;12.20;;;;;;;8.27;100.00;101512.75;5223680;28;20072;-65
2022/09/23 02:46:44;;;;;;;16.75;12.13;;;;;;;8.21;100.00;101509.50;5233480;28;20057;-65
2022/09/23 02:49:28;;;;;;;;;;;;;;;8.30;100.00;101508.09;5234691;28;20574;-65
2022/09/23 02:52:04;;;;;;;14.70;11.88;;;;;;;8.14;100.00;101512.56;5228169;28;20015;-65
2022/09/23 02:54:36;;;;;;;15.13;12.32;;;;;;;8.09;100.00;101506.66;5233180;28;20033;-65
2022/09/23 02:57:08;;;;;;;15.27;12.65;;;;;;;8.07;100.00;101508.53;5238822;28;20028;-65
2022/09/23 02:59:40;;;;;;;16.65;13.55;;;;;;;8.00;100.00;101495.59;5230886;28;20029;-65
2022/09/23 03:02:35;;;;;;;15.57;12.50;;;;;;;8.05;100.00;101496.19;5236342;28;20048;-66
2022/09/23 03:05:22;;;;;;;15.50;12.10;;;;;;;8.02;100.00;101495.50;5238267;28;20124;-64
2022/09/23 03:08:03;;;;;;;17.90;12.52;;;;;;;7.98;100.00;101494.81;5225348;28;20045;-65
2022/09/23 03:11:03;;;;;;;16.65;12.57;;;;;;;7.98;100.00;101494.81;5222144;28;20037;-65
2022/09/23 03:13:41;;;;;;;14.88;12.30;;;;;;;7.91;100.00;101492.59;5220531;28;20426;-65
2022/09/23 03:16:25;;;;;;;14.98;11.98;;;;;;;7.87;100.00;101488.38;5230305;28;20037;-65
2022/09/23 03:19:04;;;;;;;14.57;11.60;;;;;;;7.85;100.00;101485.81;5224660;28;20063;-65
2022/09/23 03:21:45;;;;;;;15.90;12.23;;;;;;;7.84;100.00;101486.72;5225054;28;20033;-65
2022/09/23 03:24:19;;;;;;;14.23;12.05;;;;;;;7.82;100.00;101489.50;5224014;28;20042;-65
2022/09/23 03:26:52;;;;;;;14.57;11.98;;;;;;;7.89;100.00;101484.69;5225665;28;20025;-66
2022/09/23 03:29:24;;;;;;;16.02;12.80;;;;;;;7.84;100.00;101484.97;5224019;28;20640;-65
2022/09/23 03:31:56;;;;;;;15.55;11.43;;;;;;;7.91;100.00;101487.28;5220231;28;20037;-65
2022/09/23 03:34:31;;;;;;;18.35;12.45;;;;;;;7.90;100.00;101478.44;5219053;28;20045;-65
2022/09/23 03:37:46;;;;;;;17.02;12.80;;;;;;;7.91;100.00;101482.81;5231644;28;20103;-65
2022/09/23 03:40:24;;;;;;;14.85;11.88;;;;;;;7.84;100.00;101482.31;5224248;28;20037;-65
2022/09/23 03:42:56;;;;;;;14.20;11.25;;;;;;;7.87;100.00;101483.94;5216763;28;20529;-65
2022/09/23 03:45:32;;;;;;;21.52;11.82;;;;;;;7.83;100.00;101482.38;5219159;28;20042;-65
2022/09/23 03:48:05;;;;;;;14.23;11.27;;;;;;;7.88;100.00;101480.34;5220419;28;20555;-65
2022/09/23 03:50:38;;;;;;;14.43;11.77;;;;;;;7.84;100.00;101478.75;5213072;28;20037;-65
2022/09/23 03:53:12;;;;;;;15.60;11.10;;;;;;;7.83;100.00;101475.25;5226665;28;20478;-65
2022/09/23 03:55:45;;;;;;;13.52;10.63;;;;;;;7.87;100.00;101473.28;5227365;28;20078;-65
2022/09/23 03:58:16;;;;;;;14.45;10.68;;;;;;;7.77;100.00;101480.91;5226910;28;20037;-65
2022/09/23 04:00:48;;;;;;;14.70;10.82;;;;;;;7.77;100.00;101477.41;5218456;28;20026;-65
2022/09/23 04:03:19;;;;;;;13.65;10.57;;;;;;;7.82;100.00;101472.69;5224591;28;20374;-65
2022/09/23 04:05:51;;;;;;;14.13;11.13;;;;;;;7.80;100.00;101475.41;5218343;28;20032;-64
2022/09/23 04:08:22;;;;;;;13.68;10.30;;;;;;;7.84;100.00;101471.69;5217699;28;20509;-64
2022/09/23 04:10:58;;;;;;;14.13;9.85;;;;;;;7.79;100.00;101470.22;5219534;28;20610;-65
2022/09/23 04:13:30;;;;;;;12.73;9.70;;;;;;;7.90;100.00;101473.13;5221381;28;20018;-65
2022/09/23 04:16:02;;;;;;;14.35;9.93;;;;;;;7.82;100.00;101472.69;5222602;28;20032;-65
2022/09/23 04:18:34;;;;;;;14.63;10.43;;;;;;;7.79;100.00;101470.22;5223713;28;20021;-66
2022/09/23 04:21:05;;;;;;;12.52;9.68;;;;;;;7.78;100.00;101471.13;5223033;28;20026;-65
2022/09/23 04:23:36;;;;;;;14.35;10.95;;;;;;;7.79;100.00;101462.25;5219047;28;20034;-65
2022/09/23 04:26:08;;;;;;;16.30;10.80;;;;;;;7.75;100.00;101472.19;5219151;28;20079;-65
2022/09/23 04:28:39;;;;;;;12.98;9.93;;;;;;;7.84;100.00;101481.41;5223409;28;20025;-66
2022/09/23 04:31:11;;;;;;;16.63;10.18;;;;;;;7.71;100.00;101472.41;5219587;28;20033;-65
2022/09/23 04:33:43;;;;;;;13.60;9.65;;;;;;;7.65;100.00;101466.50;5230089;28;20116;-65
2022/09/23 04:36:14;;;;;;;14.75;10.55;;;;;;;7.78;100.00;101468.47;5230089;28;20035;-65
2022/09/23 04:38:47;;;;;;;13.27;10.63;;;;;;;7.73;100.00;101463.44;5226179;28;20830;-65
2022/09/23 04:41:18;;;;;;;13.30;10.35;;;;;;;7.64;100.00;101458.63;5221854;28;20669;-66
2022/09/23 04:43:50;;;;;;;11.93;10.45;;;;;;;7.70;100.00;101458.28;5229202;28;20366;-66
2022/09/23 04:46:21;;;;;;;15.85;11.52;;;;;;;7.62;100.00;101461.34;5226157;28;20052;-65
2022/09/23 04:48:52;;;;;;;15.45;10.85;;;;;;;7.65;100.00;101462.97;5231826;28;20081;-70
2022/09/23 04:51:25;;;;;;;14.63;10.98;;;;;;;7.61;100.00;101464.09;5219352;28;20025;-65
2022/09/23 04:53:56;;;;;;;13.55;11.02;;;;;;;7.58;100.00;101459.81;5226787;28;20052;-64
2022/09/23 04:56:31;;;;;;;14.20;10.68;;;;;;;7.59;100.00;101460.66;5224586;28;20049;-65
2022/09/23 04:59:02;;;;;;;12.90;9.80;;;;;;;7.61;100.00;101459.66;5215338;28;20686;-66
2022/09/23 05:01:35;;;;;;;14.32;10.70;;;;;;;7.57;100.00;101452.75;5215969;28;20288;-66
2022/09/23 05:04:09;;;;;;;14.68;10.55;;;;;;;7.60;100.00;101442.00;5217934;28;20112;-66
2022/09/23 05:06:43;;;;;;;11.73;9.70;;;;;;;7.59;100.00;101442.94;5217564;28;20033;-65
2022/09/23 05:09:16;;;;;;;13.02;9.77;;;;;;;7.55;100.00;101444.03;5221237;28;20029;-66
2022/09/23 05:11:47;;;;;;;13.10;10.27;;;;;;;7.56;100.00;101445.75;5223459;28;20060;-65
2022/09/23 05:14:18;;;;;;;13.18;9.57;;;;;;;7.54;100.00;101444.97;5226068;28;20022;-66
2022/09/23 05:16:50;;;;;;;13.23;10.20;;;;;;;7.59;100.00;101444.72;5224436;28;20060;-66
2022/09/23 05:19:21;;;;;;;13.43;10.02;;;;;;;7.52;100.00;101449.53;5222009;28;20037;-65
2022/09/23 05:21:53;;;;;;;13.80;10.18;;;;;;;7.55;100.00;101454.66;5227036;28;20368;-66
2022/09/23 05:24:25;;;;;;;14.00;10.27;;;;;;;7.53;100.00;101455.69;5222718;28;20041;-66
2022/09/23 05:26:56;;;;;;;13.25;9.93;;;;;;;7.57;100.00;101459.88;5229945;28;20033;-66
2022/09/23 05:29:27;;;;;;;13.32;9.80;;;;;;;7.59;100.00;101461.53;5224561;28;20834;-66
2022/09/23 05:32:00;;;;;;;15.13;9.23;;;;;;;7.60;100.00;101465.88;5225499;28;20542;-66
2022/09/23 05:34:31;;;;;;;16.15;9.18;;;;;;;7.61;100.00;101464.97;5216101;28;20116;-66
2022/09/23 05:37:04;;;;;;;10.35;8.90;;;;;;;7.64;100.00;101470.09;5217460;28;20033;-66
2022/09/23 05:39:35;;;;;;;14.05;9.30;;;;;;;7.80;100.00;101467.44;5218350;28;20690;-65
2022/09/23 05:42:07;;;;;;;11.80;8.70;;;;;;;7.78;100.00;101464.00;5217658;28;20041;-66
2022/09/23 05:44:38;;;;;;;15.00;8.65;;;;;;;7.87;100.00;101460.00;5221869;28;20120;-66
2022/09/23 05:47:09;;;;;;;13.43;8.80;;;;;;;7.93;100.00;101464.13;5229948;28;20053;-66
2022/09/23 05:49:40;;;;;;;12.02;8.13;;;;;;;7.93;100.00;101469.44;5238367;28;20037;-65
2022/09/23 05:52:12;;;;;;;11.73;8.52;;;;;;;7.94;100.00;101471.13;5214792;28;20033;-66
2022/09/23 05:54:43;;;;;;;14.20;8.70;;;;;;;8.02;100.00;101476.91;5223360;28;20033;-65
2022/09/23 05:57:14;;;;;;;13.23;9.27;;;;;;;8.13;100.00;101476.28;5220104;28;20502;-66
2022/09/23 05:59:47;;;;;;;10.77;8.25;;;;;;;8.04;100.00;101483.00;5224864;28;20069;-66
2022/09/23 06:02:18;;;;;;;12.00;8.68;;;;;;;8.08;100.00;101473.91;5225204;28;20033;-65
2022/09/23 06:04:49;;;;;;;12.35;8.63;;;;;;;8.05;100.00;101474.94;5224792;28;20030;-66
2022/09/23 06:07:21;;;;;;;13.45;8.57;;;;;;;8.09;100.00;101472.09;5227328;28;20039;-65
2022/09/23 06:09:52;;;;;;;12.05;8.85;;;;;;;8.22;100.00;101467.81;5218986;28;20037;-65
2022/09/23 06:12:24;;;;;;;11.88;8.85;;;;;;;8.13;100.00;101458.56;5218799;28;21362;-65
2022/09/23 06:14:55;;;;;;;12.77;9.02;;;;;;;8.22;100.00;101465.16;5225931;28;20100;-65
2022/09/23 06:17:26;;;;;;;13.70;9.18;;;;;;;8.23;100.00;101464.22;5228592;28;21058;-66
2022/09/23 06:19:58;;;;;;;11.70;8.70;;;;;;;8.43;100.00;101461.28;5222228;28;20090;-65
2022/09/23 06:22:29;;;;;;;14.05;8.80;;;;;;;8.44;100.00;101463.00;5229622;28;20044;-65
2022/09/23 06:25:00;;;;;;;12.93;9.38;;;;;;;8.38;100.00;101457.16;5225829;28;20052;-65
2022/09/23 06:27:31;;;;;;;17.70;9.25;;;;;;;8.53;100.00;101455.44;5224900;28;20079;-65
2022/09/23 06:30:05;;;;;;;13.63;8.63;;;;;;;8.48;100.00;101457.53;5232029;28;20067;-65
2022/09/23 06:32:36;;;;;;;13.80;9.30;;;;;;;8.50;100.00;101453.81;5233450;28;20040;-65
2022/09/23 06:35:08;;;;;;;14.45;9.05;;;;;;;8.57;100.00;101454.31;5229568;28;20022;-66
2022/09/23 06:37:39;;;;;;;12.77;8.90;;;;;;;8.60;100.00;101456.81;5233795;28;20392;-65
2022/09/23 06:40:11;;;;;;;13.63;9.18;;;;;;;8.84;100.00;101459.84;5229548;28;20033;-65
2022/09/23 06:42:43;;;;;;;12.50;8.98;;;;;;;8.77;100.00;101455.81;5227416;28;20029;-66
2022/09/23 06:45:15;;;;;;;13.25;9.48;;;;;;;8.83;100.00;101458.09;5229493;28;20529;-66
2022/09/23 06:47:48;;;;;;;13.35;9.43;;;;;;;8.87;100.00;101456.97;5231240;28;20124;-66
2022/09/23 06:50:19;;;;;;;14.05;9.25;;;;;;;9.09;100.00;101463.66;5230147;28;20044;-66
2022/09/23 06:52:54;;;;;;;13.18;9.15;;;;;;;9.00;100.00;101465.09;5229017;28;20037;-65
2022/09/23 06:55:26;;;;;;;14.68;9.85;;;;;;;9.00;100.00;101460.63;5230154;28;20040;-65
2022/09/23 06:57:58;;;;;;;14.48;9.30;;;;;;;9.04;100.00;101453.31;5230172;28;20391;-65
2022/09/23 07:00:29;;;;;;;12.95;9.40;;;;;;;9.25;100.00;101455.63;5229165;28;20086;-66
2022/09/23 07:03:00;;;;;;;11.23;8.85;;;;;;;9.24;100.00;101454.75;5227828;28;20146;-65
2022/09/23 07:05:32;;;;;;;13.45;8.88;;;;;;;9.25;100.00;101458.28;5230928;28;20034;-65
2022/09/23 07:08:10;;;;;;;12.05;9.35;;;;;;;9.36;100.00;101463.81;5226911;28;20142;-66
2022/09/23 07:10:41;;;;;;;12.73;9.30;;;;;;;9.52;100.00;101464.56;5225951;28;20041;-65
2022/09/23 07:13:12;;;;;;;12.35;8.88;;;;;;;9.51;100.00;101452.22;5227615;28;20066;-65
2022/09/23 07:15:51;;;;;;;11.75;8.60;;;;;;;9.50;100.00;101450.50;5231135;28;20153;-65
2022/09/23 07:18:24;;;;;;;11.73;8.07;;;;;;;9.66;100.00;101449.53;5226057;28;20032;-65
2022/09/23 07:20:58;;;;;;;12.13;9.32;;;;;;;9.69;100.00;101449.34;5226528;28;20033;-65
2022/09/23 07:23:31;;;;;;;13.02;8.73;;;;;;;9.78;100.00;101451.44;5226842;28;20531;-66
2022/09/23 07:26:04;;;;;;;13.55;8.65;;;;;;;9.92;100.00;101461.22;5231652;28;20323;-66
2022/09/23 07:28:36;;;;;;;14.98;8.70;;;;;;;9.96;100.00;101452.06;5226506;28;20042;-65
2022/09/23 07:31:10;;;;;;;14.73;8.68;;;;;;;10.00;100.00;101459.75;5224834;28;20422;-66
2022/09/23 07:33:44;;;;;;;12.45;8.05;;;;;;;9.98;100.00;101456.31;5228969;28;20029;-66
2022/09/23 07:36:18;;;;;;;13.80;8.00;;;;;;;10.13;100.00;101449.16;5229948;28;20033;-65
2022/09/23 07:38:49;;;;;;;13.02;8.90;;;;;;;10.16;100.00;101454.31;5230892;28;20033;-65
2022/09/23 07:41:20;;;;;;;12.93;7.93;;;;;;;10.18;100.00;101455.06;5228654;28;20767;-66
2022/09/23 07:43:57;;;;;;;12.65;8.23;;;;;;;10.28;100.00;101455.31;5216917;28;20103;-65
2022/09/23 07:46:30;;;;;;;11.25;8.18;;;;;;;10.37;100.00;101454.75;5229933;28;20030;-67
2022/09/23 07:49:03;;;;;;;12.05;8.15;;;;;;;10.39;100.00;101452.81;5228237;28;20036;-66
2022/09/23 07:51:37;;;;;;;12.95;7.90;;;;;;;10.47;100.00;101456.78;5232628;28;20422;-66
2022/09/23 07:54:13;;;;;;;12.15;8.57;;;;;;;10.56;100.00;101456.16;5227623;28;20017;-66
2022/09/23 07:56:45;;;;;;;11.63;8.18;;;;;;;10.63;100.00;101449.47;5227665;28;20029;-65
2022/09/23 07:59:18;;;;;;;11.00;8.07;;;;;;;10.71;100.00;101449.81;5229910;28;20056;-65
2022/09/23 08:01:54;;;;;;;11.50;7.60;;;;;;;10.77;100.00;101449.38;5231393;28;20029;-66
2022/09/23 08:04:30;;;;;;;13.20;7.88;;;;;;;10.89;100.00;101457.53;5224421;28;20033;-66
2022/09/23 08:07:04;;;;;;;13.18;8.43;;;;;;;10.88;100.00;101459.34;5228375;28;20025;-66
2022/09/23 08:09:40;;;;;;;12.30;7.95;;;;;;;10.94;100.00;101466.94;5227903;28;20021;-66
2022/09/23 08:12:15;;;;;;;11.65;7.50;;;;;;;11.01;100.00;101464.72;5224921;28;20029;-66
2022/09/23 08:14:46;;;;;;;10.18;7.43;;;;;;;11.08;100.00;101457.13;5226439;28;20033;-66
2022/09/23 08:17:17;;;;;;;10.38;7.15;;;;;;;11.10;100.00;101466.75;5223834;28;20033;-66
2022/09/23 08:19:49;;;;;;;13.57;7.88;;;;;;;11.15;100.00;101459.25;5225194;28;20033;-65
2022/09/23 08:22:20;;;;;;;15.15;8.10;;;;;;;11.21;100.00;101457.13;5225804;28;20052;-66
2022/09/23 08:24:51;;;;;;;11.88;7.60;;;;;;;11.23;100.00;101471.25;5227083;28;20025;-66
2022/09/23 08:27:22;;;;;;;11.25;7.82;;;;;;;11.31;100.00;101467.09;5225941;28;20029;-65
2022/09/23 08:29:54;;;;;;;11.57;7.97;;;;;;;11.50;100.00;101465.78;5227565;28;20112;-66
2022/09/23 08:32:25;;;;;;;10.35;7.53;;;;;;;11.48;100.00;101467.69;5227769;28;20071;-66
2022/09/23 08:34:56;;;;;;;13.38;8.88;;;;;;;11.55;100.00;101460.97;5226955;28;20053;-66
2022/09/23 08:37:28;;;;;;;13.30;8.20;;;;;;;11.68;100.00;101466.31;5231307;28;20032;-66
2022/09/23 08:39:59;;;;;;;14.50;8.70;;;;;;;11.69;100.00;101465.31;5227612;28;20482;-66
2022/09/23 08:42:32;;;;;;;13.75;7.30;;;;;;;11.76;100.00;101467.44;5226865;28;20098;-66
2022/09/23 08:45:10;;;;;;;11.00;7.10;;;;;;;12.01;100.00;101467.56;5223653;28;20113;-66
2022/09/23 08:47:49;;;;;;;12.48;7.13;;;;;;;12.04;100.00;101467.31;5226272;28;20049;-66
2022/09/23 08:50:25;;;;;;;11.63;7.18;;;;;;;12.21;100.00;101458.06;5228782;28;20104;-65
2022/09/23 08:53:10;;;;;;;10.27;6.80;;;;;;;12.15;100.00;101451.34;5231326;28;20025;-66
2022/09/23 08:55:51;;;;;;;13.15;7.25;;;;;;;12.27;100.00;101463.81;5225596;28;20048;-66
2022/09/23 08:58:36;;;;;;;11.27;6.90;;;;;;;12.40;100.00;101458.41;5229859;28;20041;-66
2022/09/23 09:01:18;;;;;;;9.57;6.90;;;;;;;12.47;100.00;101458.81;5225873;28;20037;-65
2022/09/23 09:03:56;;;;;;;9.82;6.50;;;;;;;12.56;100.00;101452.78;5225687;28;20052;-66
2022/09/23 09:06:39;;;;;;;10.95;6.72;;;;;;;12.58;100.00;101456.19;5227858;28;20103;-66
2022/09/23 09:09:31;;;;;;;10.07;6.50;;;;;;;12.74;100.00;101451.34;5217404;28;20534;-66
2022/09/23 09:12:17;;;;;;;9.43;5.75;;;;;;;12.79;100.00;101453.69;5226730;28;20593;-66
2022/09/23 09:15:01;;;;;;;8.98;5.93;;;;;;;12.94;100.00;101451.66;5233924;28;20052;-66
2022/09/23 09:17:51;;;;;;;10.38;6.07;;;;;;;13.16;100.00;101455.38;5228946;28;20041;-66
2022/09/23 09:20:28;;;;;;;10.80;5.80;;;;;;;13.18;100.00;101453.44;5231541;28;20065;-66
2022/09/23 09:23:11;;;;;;;8.48;5.53;;;;;;;13.25;100.00;101449.28;5230795;28;20041;-66
2022/09/23 09:25:50;;;;;;;9.50;5.78;;;;;;;13.29;100.00;101450.78;5228909;28;20029;-66
2022/09/23 09:28:29;;;;;;;8.13;5.43;;;;;;;13.43;100.00;101447.88;5226822;28;20037;-66
2022/09/23 09:31:15;;;;;;;10.23;5.10;;;;;;;13.44;100.00;101451.41;5229257;28;20108;-66
2022/09/23 09:33:56;;;;;;;9.93;5.20;;;;;;;13.65;100.00;101446.16;5229253;28;20044;-66
2022/09/23 09:36:37;;;;;;;8.55;5.03;;;;;;;13.79;99.58;101456.66;5227454;28;20044;-66
2022/09/23 09:39:12;;;;;;;10.48;5.80;;;;;;;13.70;100.00;101449.34;5236325;28;20025;-66
2022/09/23 09:41:48;;;;;;;9.70;4.75;;;;;;;13.88;100.00;101445.19;5230085;28;20068;-66
2022/09/23 09:44:35;;;;;;;9.15;4.70;;;;;;;13.85;100.00;101440.06;5236255;28;20087;-66
2022/09/23 09:47:30;;;;;;;7.28;4.60;;;;;;;14.12;98.21;101438.78;5233236;28;20068;-66
2022/09/23 09:50:10;;;;;;;9.07;4.88;;;;;;;14.00;99.44;101437.97;5235806;28;20048;-66
2022/09/23 09:52:42;;;;;;;9.50;4.40;;;;;;;14.12;98.59;101436.09;5230387;28;20060;-66
2022/09/23 09:55:13;;;;;;;7.22;3.97;;;;;;;14.22;98.98;101434.34;5234714;28;20103;-66
2022/09/23 09:58:02;;;;;;;6.68;4.10;;;;;;;14.38;94.73;101438.44;5228652;28;20041;-66
2022/09/23 10:00:44;;;;;;;7.80;3.58;;;;;;;14.41;94.52;101432.84;5234027;28;20503;-66
2022/09/23 10:03:32;;;;;;;7.68;3.53;;;;;;;14.50;95.64;101432.06;5234320;28;20030;-66
2022/09/23 10:06:16;;;;;;;10.07;4.57;;;;;;;14.55;94.52;101431.69;5232319;28;20033;-66
2022/09/23 10:09:01;;;;;;;8.85;3.83;;;;;;;14.66;94.41;101432.50;5235677;28;20033;-66
2022/09/23 10:11:32;;;;;;;6.05;4.00;;;;;;;14.86;91.84;101427.25;5226527;28;20030;-66
2022/09/23 10:14:16;;;;;;;5.90;3.63;;;;;;;14.77;92.65;101418.19;5233378;28;20394;-66
2022/09/23 10:17:04;;;;;;;6.22;3.80;;;;;;;15.04;93.91;101424.84;5230610;28;20107;-66
2022/09/23 10:19:37;;;;;;;7.93;4.07;;;;;;;15.08;91.42;101420.91;5234172;28;20030;-66
2022/09/23 10:22:18;;;;;;;7.07;4.20;;;;;;;15.07;91.21;101416.50;5231841;28;20025;-66
2022/09/23 10:24:52;;;;;;;7.03;4.70;;;;;;;15.13;92.37;101417.81;5229914;28;20034;-66
2022/09/23 10:27:30;;;;;;;9.23;4.97;;;;;;;15.21;91.11;101416.19;5233147;28;20029;-67
2022/09/23 10:30:24;;;;;;;8.98;4.90;;;;;;;15.33;88.19;101408.88;5229454;28;20083;-67
2022/09/23 10:32:56;;;;;;;6.53;4.60;;;;;;;15.43;92.49;101411.59;5228254;28;20034;-67
2022/09/23 10:35:28;;;;;;;8.10;4.25;;;;;;;15.63;86.62;101415.22;5229597;28;20036;-67
2022/09/23 10:37:59;;;;;;;9.68;4.15;;;;;;;15.53;89.67;101417.84;5229016;28;20573;-67
2022/09/23 10:47:09;;;;;;;9.15;4.63;;;;;;;15.80;90.87;101419.97;5239432;28;20392;-67
2022/09/23 10:50:13;;;;;;;8.45;4.50;;;;;;;15.74;87.99;101415.13;5232255;28;20033;-67
2022/09/23 10:53:02;;;;;;;6.90;3.75;;;;;;;15.95;86.63;101422.28;5234941;28;20133;-67
2022/09/23 10:56:11;;;;;;;9.25;4.03;;;;;;;15.91;88.80;101412.78;5234156;28;20025;-67
2022/09/23 10:59:20;;;;;;;9.85;4.82;;;;;;;15.93;86.63;101405.41;5234772;28;20044;-67
2022/09/23 11:02:03;;;;;;;7.70;4.38;;;;;;;16.03;83.11;101408.97;5233937;28;20387;-67
2022/09/23 11:05:01;;;;;;;8.90;4.38;;;;;;;16.16;85.33;101411.41;5236737;28;20029;-64
2022/09/23 11:08:05;;;;;;;9.73;4.50;;;;;;;16.10;85.58;101399.34;5232481;28;20391;-64
2022/09/23 11:10:56;;;;;;;7.03;4.28;;;;;;;16.16;85.43;101409.53;5231413;28;20037;-64
2022/09/23 11:13:33;;;;;;;10.23;3.72;;;;;;;16.37;80.44;101408.56;5226509;28;20466;-65
2022/09/23 11:16:07;;;;;;;7.28;4.15;;;;;;;16.31;81.55;101412.69;5223303;28;20029;-67
2022/09/23 11:18:44;;;;;;;;;;;;;;;16.40;88.64;101405.63;5234290;28;20060;-67
2022/09/23 11:21:36;;;;;;;6.22;3.42;;;;;;;16.45;83.44;101403.31;5230062;28;20282;-67
2022/09/23 11:24:48;;;;;;;7.47;3.63;;;;;;;16.53;81.41;101398.09;5233274;28;20048;-67
2022/09/23 11:28:01;;;;;;;7.43;3.50;;;;;;;16.55;83.81;101393.41;5232987;28;20052;-67
2022/09/23 11:31:05;;;;;;;7.25;3.60;;;;;;;16.65;82.89;101402.34;5229516;28;20441;-67
2022/09/23 11:33:58;;;;;;;7.93;3.83;;;;;;;16.61;81.29;101392.00;5229867;28;20041;-67
2022/09/23 11:36:34;;;;;;;7.30;4.10;;;;;;;16.63;83.75;101393.53;5235635;28;20490;-68
2022/09/23 11:39:15;;;;;;;6.13;3.17;;;;;;;16.66;82.02;101393.28;5234497;28;20014;-67
2022/09/23 11:41:48;;;;;;;6.45;3.67;;;;;;;16.66;84.80;101385.19;5235803;28;20034;-67
2022/09/23 11:44:28;;;;;;;5.93;3.25;;;;;;;16.70;78.05;101385.72;5233214;28;20137;-67
2022/09/23 11:47:13;;;;;;;7.85;3.13;;;;;;;16.72;82.39;101380.19;5224214;28;20080;-67
2022/09/23 11:49:49;;;;;;;;;;;;;;;16.84;86.96;101385.31;5234004;28;20036;-67
2022/09/23 11:52:28;;;;;;;6.60;3.17;;;;;;;16.77;82.52;101381.47;5229799;28;20910;-67
2022/09/23 11:55:12;;;;;;;7.35;3.28;;;;;;;16.87;77.14;101373.38;5231537;28;20033;-67
2022/09/23 11:57:58;;;;;;;7.43;2.60;;;;;;;16.92;76.45;101376.50;5225213;28;20021;-67
2022/09/23 12:00:37;;;;;;;5.88;2.45;;;;;;;17.14;74.47;101382.53;5233087;28;20033;-68
2022/09/23 12:03:23;;;;;;;8.00;3.00;;;;;;;17.03;75.45;101379.03;5232127;28;20123;-67
2022/09/23 12:06:11;;;;;;;5.07;2.28;;;;;;;17.11;77.74;101375.59;5227437;28;20044;-67
2022/09/23 12:08:43;;;;;;;6.45;2.50;;;;;;;17.07;77.25;101374.19;5226908;28;20086;-67
2022/09/23 12:11:25;;;;;;;6.15;2.40;;;;;;;17.13;81.51;101375.47;5230265;28;20476;-68
2022/09/23 12:14:16;;;;;;;5.70;2.72;;;;;;;17.08;75.71;101364.25;5232533;28;20040;-67